East Franklin, Vermont
Current Conditions -  °F | °C
As of 9:55 AM on Monday 24 Nov 2014 (Local Time) from KFSO Reporting Station
Overcast Overcast  
Wind Chill: 53°   Ceiling: 2400
Heat Index: 53°   Visibility: 10mi
Dew Point: 49°   Wind: 10mph
Humidity: 88%   Direction: 170°S
Pressure: 29.48"   Gusts: 20mph
Location:  44.9656°N, 72.8975°W
Report Text: KFSO 241455Z AUTO 17009G17KT 10SM BKN024 OVC032 12/10 A2948 RMK AO2 T01150095
Loading
Personal Weather Stations






























Interactive Weather Map New forecast layout! Learn more

10-Day Weather Forecast

Advertisements
Track Severe Weather on mobile